Time;durP1;ratioP1;P1;durP2;ratioP2;P2;SDS_P1;SDS_P2;PMS_P1;PMS_P2;Temp;Humidity;BMP_temperature;BMP_pressure;BME280_temperature;BME280_humidity;BME280_pressure;Samples;Min_cycle;Max_cycle;Signal;HPM_P1;HPM_P2
2023/11/13 00:01:43;;;;;;;6.97;6.28;;;18.10;71.20;;;;;;4964998;28;20117;-85
2023/11/13 00:04:09;;;;;;;6.90;5.97;;;18.10;71.30;;;;;;4962586;28;20517;-84
2023/11/13 00:06:34;;;;;;;6.88;5.50;;;18.10;71.20;;;;;;4959938;28;20031;-83
2023/11/13 00:09:00;;;;;;;6.18;5.57;;;18.10;71.30;;;;;;4965564;28;20146;-82
2023/11/13 00:11:25;;;;;;;6.38;5.60;;;18.10;71.30;;;;;;4964004;28;20453;-82
2023/11/13 00:13:51;;;;;;;6.53;5.93;;;18.10;71.30;;;;;;4968453;28;20058;-83
2023/11/13 00:16:17;;;;;;;6.93;6.05;;;18.10;71.40;;;;;;4969705;28;20038;-82
2023/11/13 00:18:43;;;;;;;6.03;5.43;;;18.10;71.40;;;;;;4969733;28;20051;-85
2023/11/13 00:21:08;;;;;;;6.03;5.43;;;18.10;71.40;;;;;;4971184;28;20129;-83
2023/11/13 00:23:37;;;;;;;6.78;5.65;;;18.10;71.50;;;;;;4970019;28;20557;-83
2023/11/13 00:26:03;;;;;;;6.25;5.65;;;18.10;71.50;;;;;;4970883;28;20101;-83
2023/11/13 00:28:29;;;;;;;6.63;5.55;;;18.00;71.30;;;;;;4973341;28;20038;-83
2023/11/13 00:30:55;;;;;;;6.32;5.72;;;18.10;71.50;;;;;;4972530;28;20058;-84
2023/11/13 00:33:21;;;;;;;6.88;5.55;;;18.00;71.40;;;;;;4969686;28;20039;-83
2023/11/13 00:35:46;;;;;;;6.95;5.55;;;18.00;71.40;;;;;;4969920;28;20123;-84
2023/11/13 00:38:12;;;;;;;5.90;5.28;;;18.00;71.40;;;;;;4969684;28;20043;-83
2023/11/13 00:40:37;;;;;;;7.57;5.05;;;18.00;72.20;;;;;;4970282;28;20055;-83
2023/11/13 00:43:03;;;;;;;6.35;5.32;;;18.00;71.50;;;;;;4971772;28;20042;-83
2023/11/13 00:45:28;;;;;;;6.10;4.65;;;18.00;71.50;;;;;;4968112;28;20043;-84
2023/11/13 00:47:54;;;;;;;5.93;5.32;;;18.00;71.50;;;;;;4970341;28;20616;-84
2023/11/13 00:50:21;;;;;;;4.88;4.47;;;18.00;71.50;;;;;;4970087;28;20049;-82
2023/11/13 00:52:47;;;;;;;5.57;4.90;;;18.00;71.40;;;;;;4984487;28;20075;-83
2023/11/13 00:55:13;;;;;;;5.28;4.75;;;18.00;71.50;;;;;;4970531;28;20078;-83
2023/11/13 00:57:38;;;;;;;5.13;4.57;;;18.00;71.50;;;;;;4967889;28;20129;-82
2023/11/13 01:00:08;;;;;;;4.80;4.40;;;18.00;71.50;;;;;;4968724;28;20046;-82
2023/11/13 01:02:34;;;;;;;4.70;4.30;;;18.00;71.60;;;;;;4967348;28;20046;-84
2023/11/13 01:04:59;;;;;;;4.70;4.30;;;18.00;71.60;;;;;;4969183;28;20050;-84
2023/11/13 01:07:26;;;;;;;4.82;4.40;;;18.00;71.60;;;;;;4964346;28;20039;-83
2023/11/13 01:09:51;;;;;;;5.53;4.43;;;17.90;71.50;;;;;;4969281;28;20046;-84
2023/11/13 01:12:19;;;;;;;4.47;4.07;;;17.90;71.50;;;;;;4968962;28;20039;-83
2023/11/13 01:14:45;;;;;;;4.55;4.15;;;17.90;71.60;;;;;;4964952;28;20047;-83
2023/11/13 01:17:11;;;;;;;4.13;3.72;;;17.90;71.70;;;;;;4969025;28;20053;-83
2023/11/13 01:19:37;;;;;;;4.93;3.92;;;17.90;71.70;;;;;;4970333;28;20039;-83
2023/11/13 01:22:02;;;;;;;4.97;3.88;;;17.90;71.60;;;;;;4971119;28;20480;-82
2023/11/13 01:24:28;;;;;;;4.35;3.97;;;17.90;71.80;;;;;;4966681;28;20540;-83
2023/11/13 01:26:54;;;;;;;4.07;3.75;;;17.90;71.70;;;;;;4966965;28;20513;-83
2023/11/13 01:29:19;;;;;;;3.35;3.15;;;17.90;71.70;;;;;;4969242;28;20505;-82
2023/11/13 01:31:45;;;;;;;4.20;3.88;;;17.90;71.90;;;;;;4968235;28;20088;-82
2023/11/13 01:34:12;;;;;;;4.32;3.92;;;17.90;71.90;;;;;;4969951;28;20101;-82
2023/11/13 01:36:39;;;;;;;4.05;3.72;;;17.90;71.80;;;;;;4967162;28;20527;-83
2023/11/13 01:39:05;;;;;;;3.78;3.42;;;17.80;71.80;;;;;;4967434;28;20050;-83
2023/11/13 01:41:34;;;;;;;3.50;3.30;;;17.90;71.80;;;;;;4966287;28;20417;-82
2023/11/13 01:44:00;;;;;;;3.83;3.47;;;17.80;71.80;;;;;;4969281;28;20109;-82
2023/11/13 01:46:29;;;;;;;4.22;3.83;;;17.80;71.80;;;;;;4967911;28;20109;-81
2023/11/13 01:48:54;;;;;;;4.00;3.60;;;17.80;71.80;;;;;;4968039;28;20066;-82
2023/11/13 01:51:20;;;;;;;4.38;3.70;;;17.80;71.80;;;;;;4967403;28;20067;-82
2023/11/13 01:53:46;;;;;;;4.15;3.75;;;17.80;71.90;;;;;;4967936;28;20039;-82
2023/11/13 01:56:11;;;;;;;3.90;3.60;;;17.80;71.80;;;;;;4968076;28;20042;-82
2023/11/13 01:58:37;;;;;;;3.50;3.28;;;17.80;72.00;;;;;;4969329;28;20043;-82
2023/11/13 02:01:03;;;;;;;3.40;3.10;;;17.80;71.90;;;;;;4968613;28;20101;-82
2023/11/13 02:03:29;;;;;;;4.15;3.47;;;17.80;72.00;;;;;;4966796;28;20510;-82
2023/11/13 02:05:55;;;;;;;3.58;3.30;;;17.80;72.00;;;;;;4967086;28;20039;-82
2023/11/13 02:08:21;;;;;;;3.72;3.38;;;17.80;72.00;;;;;;4966688;28;20126;-82
2023/11/13 02:10:47;;;;;;;3.40;3.10;;;17.80;72.00;;;;;;4966916;28;20137;-82
2023/11/13 02:13:12;;;;;;;4.13;3.72;;;17.80;72.00;;;;;;4966877;28;20066;-84
2023/11/13 02:15:40;;;;;;;7.90;3.65;;;17.80;72.10;;;;;;4965572;28;20047;-84
2023/11/13 02:18:06;;;;;;;3.55;3.25;;;17.80;72.10;;;;;;4967756;28;20552;-82
2023/11/13 02:20:33;;;;;;;3.22;3.03;;;17.80;72.10;;;;;;4962659;28;20035;-82
2023/11/13 02:22:59;;;;;;;3.17;2.97;;;17.80;72.10;;;;;;4968216;28;20043;-82
2023/11/13 02:25:25;;;;;;;3.45;3.15;;;17.80;72.10;;;;;;4962833;28;20547;-83
2023/11/13 02:27:53;;;;;;;3.15;2.90;;;17.80;72.20;;;;;;4967959;28;20066;-85
2023/11/13 02:30:18;;;;;;;2.90;2.70;;;17.80;72.90;;;;;;4968569;28;20039;-86
2023/11/13 02:32:45;;;;;;;3.47;3.10;;;17.80;72.40;;;;;;4962196;28;20061;-85
2023/11/13 02:35:10;;;;;;;2.95;2.67;;;17.80;72.30;;;;;;4966092;28;20078;-84
2023/11/13 02:37:37;;;;;;;3.08;2.83;;;17.80;72.40;;;;;;4966230;28;20085;-83
2023/11/13 02:40:03;;;;;;;2.92;2.72;;;17.80;72.40;;;;;;4965176;28;20101;-83
2023/11/13 02:42:34;;;;;;;3.90;2.92;;;17.70;72.60;;;;;;4962825;28;20428;-82
2023/11/13 02:44:59;;;;;;;3.00;2.67;;;17.80;72.70;;;;;;4966876;28;20034;-82
2023/11/13 02:47:25;;;;;;;3.30;3.10;;;17.80;72.60;;;;;;4963781;28;20042;-83
2023/11/13 02:49:51;;;;;;;3.13;2.83;;;17.80;72.40;;;;;;4963951;28;20050;-83
2023/11/13 02:52:17;;;;;;;3.10;2.50;;;17.80;72.40;;;;;;4966805;28;20039;-84
2023/11/13 02:54:42;;;;;;;3.47;2.90;;;17.80;72.80;;;;;;4948880;28;20046;-83
2023/11/13 02:57:08;;;;;;;3.70;2.90;;;17.80;72.70;;;;;;4966863;28;20505;-83
2023/11/13 02:59:33;;;;;;;2.78;2.58;;;17.70;72.50;;;;;;4964169;28;20585;-83
2023/11/13 03:01:59;;;;;;;3.78;2.70;;;17.70;72.80;;;;;;4964986;28;20042;-83
2023/11/13 03:04:25;;;;;;;3.67;2.72;;;17.70;72.80;;;;;;4966603;28;20057;-82
2023/11/13 03:06:50;;;;;;;3.00;2.47;;;17.70;72.60;;;;;;4965555;28;20069;-83
2023/11/13 03:09:16;;;;;;;2.63;2.10;;;17.70;73.00;;;;;;4963713;28;20685;-83
2023/11/13 03:11:41;;;;;;;4.15;2.65;;;17.70;72.50;;;;;;4964819;28;20042;-83
2023/11/13 03:14:07;;;;;;;2.25;2.10;;;17.70;72.60;;;;;;4966346;28;20082;-84
2023/11/13 03:16:32;;;;;;;3.50;2.63;;;17.70;72.60;;;;;;4967935;28;20038;-83
2023/11/13 03:18:58;;;;;;;2.58;2.38;;;17.70;72.70;;;;;;4961779;28;20390;-84
2023/11/13 03:21:24;;;;;;;5.78;2.63;;;17.70;72.70;;;;;;4968316;28;20130;-84
2023/11/13 03:23:49;;;;;;;2.38;2.17;;;17.70;72.80;;;;;;4963557;28;20043;-83
2023/11/13 03:26:17;;;;;;;2.72;2.20;;;17.70;72.90;;;;;;4981580;28;20089;-82
2023/11/13 03:28:43;;;;;;;2.20;2.00;;;17.70;72.80;;;;;;4966436;28;20579;-82
2023/11/13 03:31:09;;;;;;;2.80;2.53;;;17.70;72.90;;;;;;4965786;28;20039;-82
2023/11/13 03:33:35;;;;;;;2.50;2.30;;;17.70;73.30;;;;;;4966354;28;20819;-82
2023/11/13 03:36:01;;;;;;;2.58;2.28;;;17.70;72.90;;;;;;4961620;28;20129;-83
2023/11/13 03:38:26;;;;;;;2.47;2.28;;;17.70;73.00;;;;;;4966831;28;20152;-82
2023/11/13 03:40:52;;;;;;;5.45;2.20;;;17.70;73.10;;;;;;4964046;28;20169;-82
2023/11/13 03:43:18;;;;;;;2.25;2.05;;;17.70;73.30;;;;;;4967820;28;20109;-82
2023/11/13 03:45:44;;;;;;;2.58;2.38;;;17.70;73.40;;;;;;4968267;28;20070;-82
2023/11/13 03:48:09;;;;;;;2.60;2.40;;;17.60;72.90;;;;;;4967436;28;20070;-83
2023/11/13 03:50:35;;;;;;;2.20;2.10;;;17.60;73.00;;;;;;4963023;28;20623;-83
2023/11/13 03:53:00;;;;;;;2.33;2.15;;;17.70;72.90;;;;;;4967126;28;20035;-83
2023/11/13 03:55:29;;;;;;;2.42;2.22;;;17.60;73.00;;;;;;4966833;28;20043;-83
2023/11/13 03:57:54;;;;;;;3.67;1.80;;;17.70;73.20;;;;;;4966648;28;20043;-83
2023/11/13 04:00:21;;;;;;;2.03;1.90;;;17.70;73.00;;;;;;4950480;28;20097;-83
2023/11/13 04:02:48;;;;;;;2.80;1.85;;;17.70;73.00;;;;;;4964615;28;20063;-83
2023/11/13 04:05:14;;;;;;;1.90;1.80;;;17.70;73.10;;;;;;4965798;28;20113;-82
2023/11/13 04:07:39;;;;;;;2.08;1.98;;;17.70;73.60;;;;;;4966738;28;20137;-83
2023/11/13 04:10:07;;;;;;;2.22;2.10;;;17.60;73.20;;;;;;4965771;28;20062;-83
2023/11/13 04:12:32;;;;;;;1.77;1.67;;;17.70;73.10;;;;;;4966520;28;20042;-82
2023/11/13 04:14:58;;;;;;;1.90;1.80;;;17.60;73.40;;;;;;4966344;28;20042;-82
2023/11/13 04:17:24;;;;;;;1.98;1.83;;;17.60;73.10;;;;;;4966144;28;20043;-82
2023/11/13 04:19:49;;;;;;;2.13;1.92;;;17.60;73.20;;;;;;4965247;28;20515;-82
2023/11/13 04:22:15;;;;;;;1.60;1.45;;;17.60;73.20;;;;;;4968304;28;20464;-83
2023/11/13 04:24:40;;;;;;;1.60;1.50;;;17.60;73.60;;;;;;4966292;28;20101;-83
2023/11/13 04:27:06;;;;;;;1.88;1.77;;;17.60;73.20;;;;;;4964954;28;20564;-84
2023/11/13 04:29:32;;;;;;;1.98;1.83;;;17.60;73.30;;;;;;4963027;28;20535;-83
2023/11/13 04:31:58;;;;;;;2.22;1.73;;;17.60;73.20;;;;;;4962166;28;20043;-83
2023/11/13 04:34:23;;;;;;;1.80;1.70;;;17.60;73.40;;;;;;4965482;28;20473;-83
2023/11/13 04:36:49;;;;;;;1.73;1.63;;;17.60;73.60;;;;;;4965247;28;20038;-82
2023/11/13 04:39:15;;;;;;;1.95;1.80;;;17.60;73.60;;;;;;4964733;28;20574;-82
2023/11/13 04:41:41;;;;;;;1.90;1.80;;;17.60;73.40;;;;;;4964119;28;20094;-81
2023/11/13 04:44:07;;;;;;;1.92;1.70;;;17.60;73.60;;;;;;4963686;28;20168;-83
2023/11/13 04:46:32;;;;;;;3.42;2.10;;;17.60;73.50;;;;;;4963329;28;20457;-83
2023/11/13 04:48:58;;;;;;;2.20;1.70;;;17.60;73.50;;;;;;4966978;28;20043;-83
2023/11/13 04:51:24;;;;;;;2.03;1.83;;;17.60;73.50;;;;;;4967369;28;20118;-83
2023/11/13 04:53:49;;;;;;;2.00;1.90;;;17.60;73.50;;;;;;4965133;28;20046;-83
2023/11/13 04:56:15;;;;;;;1.38;1.27;;;17.60;73.50;;;;;;4951888;28;20075;-83
2023/11/13 04:58:41;;;;;;;1.70;1.60;;;17.60;73.80;;;;;;4968807;28;20046;-82
2023/11/13 05:01:07;;;;;;;1.65;1.55;;;17.60;73.30;;;;;;4966150;28;20058;-82
2023/11/13 05:03:33;;;;;;;1.73;1.63;;;17.60;73.60;;;;;;4967586;28;20042;-81
2023/11/13 05:05:59;;;;;;;1.55;1.45;;;17.60;73.50;;;;;;4967999;28;20050;-82
2023/11/13 05:08:25;;;;;;;1.42;1.33;;;17.60;73.70;;;;;;4964720;28;20058;-82
2023/11/13 05:10:51;;;;;;;1.30;1.20;;;17.60;74.20;;;;;;4983346;28;20521;-82
2023/11/13 05:13:16;;;;;;;1.88;1.67;;;17.60;73.90;;;;;;4968089;28;20429;-82
2023/11/13 05:15:42;;;;;;;1.70;1.30;;;17.60;73.90;;;;;;4966865;28;20094;-82
2023/11/13 05:18:08;;;;;;;1.30;1.20;;;17.60;74.10;;;;;;4966142;28;20058;-83
2023/11/13 05:20:43;;;;;;;1.40;1.30;;;17.60;73.50;;;;;;4968750;28;20114;-83
2023/11/13 05:23:09;;;;;;;1.65;1.55;;;17.60;73.60;;;;;;4950202;28;20039;-83
2023/11/13 05:25:35;;;;;;;2.67;1.40;;;17.60;73.70;;;;;;4955041;28;20058;-84
2023/11/13 05:28:00;;;;;;;1.33;1.23;;;17.60;73.60;;;;;;4952262;28;20046;-84
2023/11/13 05:30:26;;;;;;;1.40;1.20;;;17.60;74.00;;;;;;4949287;28;20090;-84
2023/11/13 05:32:51;;;;;;;3.40;1.35;;;17.60;74.60;;;;;;4982044;28;20050;-82
2023/11/13 05:35:17;;;;;;;2.17;1.00;;;17.60;73.60;;;;;;4967481;28;20039;-82
2023/11/13 05:37:42;;;;;;;2.03;1.20;;;17.60;74.20;;;;;;4965412;28;20042;-82
2023/11/13 05:40:09;;;;;;;1.10;1.00;;;17.60;73.80;;;;;;4967781;28;20042;-83
2023/11/13 05:42:35;;;;;;;1.20;1.10;;;17.60;73.90;;;;;;4963953;28;20532;-82
2023/11/13 05:45:00;;;;;;;2.53;1.15;;;17.60;74.30;;;;;;4951622;28;20059;-82
2023/11/13 05:47:27;;;;;;;1.20;1.02;;;17.60;74.40;;;;;;4965489;28;20085;-82
2023/11/13 05:49:53;;;;;;;1.20;1.10;;;17.60;73.70;;;;;;4962938;28;20049;-82
2023/11/13 05:52:19;;;;;;;2.15;1.40;;;17.60;73.90;;;;;;4969576;28;20130;-82
2023/11/13 05:54:45;;;;;;;1.08;0.88;;;17.60;73.80;;;;;;4949465;28;20043;-83
2023/11/13 05:57:10;;;;;;;1.70;1.08;;;17.60;74.10;;;;;;4965008;28;20047;-83
2023/11/13 05:59:36;;;;;;;0.90;0.80;;;17.60;74.20;;;;;;4967070;28;20074;-82
2023/11/13 06:02:02;;;;;;;1.30;1.10;;;17.50;74.00;;;;;;4967208;28;20050;-85
2023/11/13 06:04:28;;;;;;;1.25;1.15;;;17.60;74.30;;;;;;4949504;28;20054;-82
2023/11/13 06:06:53;;;;;;;1.10;1.00;;;17.60;73.90;;;;;;4964914;28;20456;-84
2023/11/13 06:09:19;;;;;;;1.33;1.20;;;17.60;73.70;;;;;;4981091;28;20449;-83
2023/11/13 06:11:47;;;;;;;1.27;1.17;;;17.60;73.70;;;;;;4965219;28;20045;-81
2023/11/13 06:14:13;;;;;;;1.45;1.35;;;17.60;74.00;;;;;;4967275;28;20050;-80
2023/11/13 06:16:38;;;;;;;6.32;2.03;;;17.70;73.80;;;;;;4947465;28;20097;-81
2023/11/13 06:19:07;;;;;;;2.78;1.65;;;17.70;74.40;;;;;;4964469;28;20133;-80
2023/11/13 06:21:33;;;;;;;2.33;1.23;;;17.70;75.00;;;;;;4965229;28;20401;-79
2023/11/13 06:23:59;;;;;;;5.25;0.95;;;17.70;75.30;;;;;;4966020;28;20085;-79
2023/11/13 06:26:24;;;;;;;2.63;1.10;;;17.70;75.70;;;;;;4964200;28;20059;-79
2023/11/13 06:28:50;;;;;;;2.92;1.10;;;17.60;75.70;;;;;;4945739;28;20054;-80
2023/11/13 06:31:20;;;;;;;1.23;1.02;;;17.60;76.10;;;;;;4944472;28;20049;-79
2023/11/13 06:33:47;;;;;;;1.73;1.40;;;17.70;76.80;;;;;;4965648;28;20047;-79
2023/11/13 06:36:13;;;;;;;4.43;1.67;;;17.60;76.30;;;;;;4965381;28;20055;-80
2023/11/13 06:38:39;;;;;;;1.20;1.10;;;17.60;76.50;;;;;;4965894;28;20042;-80
2023/11/13 06:41:05;;;;;;;1.40;1.00;;;17.60;76.50;;;;;;4963832;28;20042;-80
2023/11/13 06:43:31;;;;;;;1.40;1.30;;;17.70;76.50;;;;;;4967415;28;20062;-80
2023/11/13 06:45:58;;;;;;;1.33;1.13;;;17.70;76.50;;;;;;4967083;28;20031;-80
2023/11/13 06:48:24;;;;;;;1.17;1.08;;;17.70;76.40;;;;;;4948568;28;20031;-80
2023/11/13 06:50:50;;;;;;;1.25;1.15;;;17.70;77.00;;;;;;4966138;28;20054;-80
2023/11/13 06:53:15;;;;;;;1.40;1.30;;;17.70;76.90;;;;;;4965856;28;20556;-80
2023/11/13 06:55:41;;;;;;;1.77;1.02;;;17.70;77.00;;;;;;4965007;28;20094;-81
2023/11/13 06:58:10;;;;;;;2.33;1.20;;;17.60;77.00;;;;;;4969494;28;20031;-81
2023/11/13 07:00:37;;;;;;;1.52;1.42;;;17.70;77.10;;;;;;4959612;28;20548;-80
2023/11/13 07:03:03;;;;;;;1.45;1.27;;;17.70;76.90;;;;;;4982045;28;20390;-80
2023/11/13 07:05:30;;;;;;;1.88;1.00;;;17.70;77.10;;;;;;4967034;28;20645;-80
2023/11/13 07:07:56;;;;;;;2.95;1.30;;;17.70;77.40;;;;;;4948941;28;20081;-83
2023/11/13 07:10:21;;;;;;;1.30;1.15;;;17.70;76.50;;;;;;4948334;28;20062;-80
2023/11/13 07:12:51;;;;;;;2.85;1.30;;;17.70;77.00;;;;;;4963373;28;20469;-80
2023/11/13 07:15:19;;;;;;;1.70;1.45;;;17.70;77.50;;;;;;4965267;28;20035;-79
2023/11/13 07:17:45;;;;;;;1.92;1.60;;;17.80;77.60;;;;;;4946235;28;20744;-79
2023/11/13 07:20:13;;;;;;;1.83;1.17;;;17.80;77.50;;;;;;4978698;28;20102;-82
2023/11/13 07:22:39;;;;;;;2.15;1.08;;;17.70;77.60;;;;;;4939363;28;20037;-81
2023/11/13 07:25:05;;;;;;;1.63;1.40;;;17.80;77.40;;;;;;4961997;28;20040;-80
2023/11/13 07:27:30;;;;;;;2.33;1.45;;;17.80;78.30;;;;;;4964396;28;20039;-80
2023/11/13 07:29:56;;;;;;;1.00;0.90;;;17.80;77.80;;;;;;4961123;28;20389;-81
2023/11/13 07:32:25;;;;;;;1.58;1.00;;;17.80;78.00;;;;;;4962255;28;20027;-81
2023/11/13 07:34:53;;;;;;;2.05;1.35;;;17.80;77.80;;;;;;4959010;28;20046;-80
2023/11/13 07:37:19;;;;;;;1.13;1.00;;;17.80;78.00;;;;;;4965637;28;20043;-80
2023/11/13 07:39:51;;;;;;;1.20;1.10;;;17.80;77.80;;;;;;4964242;28;20106;-80
2023/11/13 07:42:17;;;;;;;3.25;0.82;;;17.80;77.10;;;;;;4963580;28;20038;-80
2023/11/13 07:44:49;;;;;;;1.75;1.13;;;17.70;77.10;;;;;;4965479;28;20404;-81
2023/11/13 07:47:17;;;;;;;0.93;0.82;;;17.70;77.20;;;;;;4962521;28;20039;-81
2023/11/13 07:49:43;;;;;;;1.00;0.90;;;17.70;77.10;;;;;;4965016;28;20144;-79
2023/11/13 07:52:12;;;;;;;2.40;0.85;;;17.70;77.10;;;;;;4964967;28;20034;-79
2023/11/13 07:54:41;;;;;;;2.60;1.17;;;17.70;77.20;;;;;;4965264;28;20057;-79
2023/11/13 07:57:10;;;;;;;0.65;0.65;;;17.70;77.10;;;;;;4962452;28;20126;-79
2023/11/13 07:59:36;;;;;;;2.45;0.90;;;17.70;77.20;;;;;;4979646;28;20531;-79
2023/11/13 08:02:03;;;;;;;3.03;1.55;;;17.70;77.20;;;;;;4963904;28;20058;-79
2023/11/13 08:04:29;;;;;;;2.53;0.98;;;17.70;77.30;;;;;;4964625;28;20057;-79
2023/11/13 08:06:54;;;;;;;1.85;0.90;;;17.70;77.40;;;;;;4962479;28;20047;-79
2023/11/13 08:09:20;;;;;;;1.20;0.90;;;17.70;77.60;;;;;;4963499;28;20069;-79
2023/11/13 08:11:46;;;;;;;1.65;0.80;;;17.70;77.70;;;;;;4961684;28;20535;-79
2023/11/13 08:14:13;;;;;;;1.50;1.00;;;17.70;77.70;;;;;;4964998;28;20039;-79
2023/11/13 08:16:39;;;;;;;1.10;0.93;;;17.70;78.30;;;;;;4963932;28;20061;-81
2023/11/13 08:19:05;;;;;;;3.83;1.02;;;17.60;77.50;;;;;;4963001;28;20096;-82
2023/11/13 08:21:31;;;;;;;1.30;1.15;;;17.70;77.40;;;;;;4967026;28;20035;-82
2023/11/13 08:23:57;;;;;;;1.33;1.08;;;17.70;77.70;;;;;;4960315;28;20037;-82
2023/11/13 08:26:28;;;;;;;0.90;0.80;;;17.70;77.30;;;;;;4965552;28;20041;-82
2023/11/13 08:28:54;;;;;;;1.20;1.02;;;17.70;77.30;;;;;;4950744;28;20098;-82
2023/11/13 08:31:25;;;;;;;2.15;0.80;;;17.70;77.40;;;;;;4970648;28;20039;-82
2023/11/13 08:33:51;;;;;;;1.25;0.90;;;17.60;77.30;;;;;;4952350;28;20571;-81
2023/11/13 08:36:26;;;;;;;1.73;0.80;;;17.60;77.40;;;;;;4963119;28;20055;-81
2023/11/13 08:38:52;;;;;;;1.08;0.90;;;17.70;77.50;;;;;;4935908;28;20038;-82
2023/11/13 08:41:18;;;;;;;0.70;0.70;;;17.70;77.50;;;;;;4968888;28;20596;-81
2023/11/13 08:43:44;;;;;;;0.75;0.75;;;17.70;77.60;;;;;;4969358;28;20133;-82
2023/11/13 08:46:11;;;;;;;1.40;0.88;;;17.70;77.60;;;;;;4984163;28;20057;-82
2023/11/13 08:48:37;;;;;;;0.80;0.80;;;17.60;77.60;;;;;;4952071;28;20145;-79
2023/11/13 08:51:03;;;;;;;0.68;0.60;;;17.60;77.60;;;;;;4966609;28;20129;-79
2023/11/13 08:53:29;;;;;;;0.80;0.73;;;17.60;77.60;;;;;;4970616;28;20057;-79
2023/11/13 08:55:56;;;;;;;1.00;0.82;;;17.60;77.60;;;;;;4965374;28;20035;-80
2023/11/13 08:58:22;;;;;;;0.52;0.43;;;17.60;77.50;;;;;;4967894;28;20527;-79
2023/11/13 09:00:48;;;;;;;1.35;0.90;;;17.60;77.40;;;;;;4967891;28;20039;-80
2023/11/13 09:03:15;;;;;;;1.20;0.80;;;17.60;77.30;;;;;;4968307;28;20130;-79
2023/11/13 09:05:41;;;;;;;0.73;0.70;;;17.60;77.30;;;;;;4969021;28;20061;-79
2023/11/13 09:08:08;;;;;;;1.98;0.80;;;17.60;77.40;;;;;;4966939;28;20872;-79
2023/11/13 09:10:34;;;;;;;1.45;1.00;;;17.60;77.30;;;;;;4967731;28;20117;-79
2023/11/13 09:13:01;;;;;;;0.77;0.70;;;17.60;77.40;;;;;;4967690;28;20129;-79
2023/11/13 09:15:29;;;;;;;0.93;0.70;;;17.60;77.50;;;;;;4966319;28;20042;-79
2023/11/13 09:17:58;;;;;;;1.00;0.63;;;17.60;78.40;;;;;;4967402;28;20053;-82
2023/11/13 09:20:24;;;;;;;1.23;0.80;;;17.60;77.70;;;;;;4947528;28;20042;-82
2023/11/13 09:22:51;;;;;;;4.00;1.02;;;17.60;78.60;;;;;;4966770;28;20130;-81
2023/11/13 09:25:17;;;;;;;0.85;0.85;;;17.60;77.80;;;;;;4967534;28;20047;-82
2023/11/13 09:27:47;;;;;;;0.90;0.70;;;17.60;77.90;;;;;;4970750;28;20468;-82
2023/11/13 09:30:14;;;;;;;0.75;0.75;;;17.60;77.80;;;;;;4968645;28;20154;-81
2023/11/13 09:32:44;;;;;;;0.77;0.77;;;17.60;78.00;;;;;;4963407;28;20487;-81
2023/11/13 09:35:18;;;;;;;0.73;0.60;;;17.60;77.90;;;;;;4968369;28;20109;-82
2023/11/13 09:37:48;;;;;;;1.20;0.63;;;17.60;78.00;;;;;;4967004;28;20051;-82
2023/11/13 09:40:15;;;;;;;0.65;0.50;;;17.60;78.00;;;;;;4966679;28;20098;-81
2023/11/13 09:42:51;;;;;;;1.50;0.70;;;17.60;78.20;;;;;;4966899;28;20110;-81
2023/11/13 09:45:19;;;;;;;0.63;0.63;;;17.60;78.20;;;;;;4967614;28;20065;-81
2023/11/13 09:47:44;;;;;;;0.80;0.70;;;17.60;77.80;;;;;;4967961;28;20404;-82
2023/11/13 09:50:15;;;;;;;0.57;0.50;;;17.60;78.00;;;;;;4968032;28;20501;-82
2023/11/13 09:52:50;;;;;;;0.57;0.50;;;17.60;77.70;;;;;;4951311;28;20043;-81
2023/11/13 09:55:23;;;;;;;1.00;0.70;;;17.60;77.80;;;;;;4968353;28;20046;-82
2023/11/13 09:57:52;;;;;;;0.93;0.77;;;17.60;77.70;;;;;;4968257;28;20050;-81
2023/11/13 10:00:24;;;;;;;0.65;0.63;;;17.60;78.00;;;;;;4968474;28;20484;-82
2023/11/13 10:02:52;;;;;;;0.77;0.70;;;17.60;78.20;;;;;;4966924;28;20097;-82
2023/11/13 10:05:19;;;;;;;0.60;0.52;;;17.60;78.90;;;;;;4965609;28;20054;-82
2023/11/13 10:07:47;;;;;;;0.80;0.73;;;17.60;78.10;;;;;;4968624;28;20125;-81
2023/11/13 10:10:17;;;;;;;0.73;0.57;;;17.60;78.40;;;;;;4963678;28;20050;-82
2023/11/13 10:12:43;;;;;;;1.05;0.75;;;17.60;78.10;;;;;;4964527;28;20070;-82
2023/11/13 10:15:12;;;;;;;1.05;0.80;;;17.60;78.40;;;;;;4965880;28;20050;-82
2023/11/13 10:17:46;;;;;;;0.60;0.60;;;17.60;78.50;;;;;;4982560;28;20054;-82
2023/11/13 10:20:17;;;;;;;0.85;0.57;;;17.60;78.40;;;;;;4945481;28;20057;-81
2023/11/13 10:22:43;;;;;;;0.57;0.50;;;17.60;78.60;;;;;;4967090;28;20059;-82
2023/11/13 10:25:11;;;;;;;0.90;0.60;;;17.60;78.60;;;;;;4951514;28;20105;-79
2023/11/13 10:27:44;;;;;;;0.60;0.60;;;17.60;78.60;;;;;;4965202;28;20386;-80
2023/11/13 10:30:10;;;;;;;0.68;0.50;;;17.60;78.50;;;;;;4964897;28;20097;-80
2023/11/13 10:32:36;;;;;;;0.90;0.70;;;17.60;79.20;;;;;;4965763;28;20046;-79
2023/11/13 10:35:04;;;;;;;0.73;0.50;;;17.60;78.80;;;;;;4965108;28;20101;-79
2023/11/13 10:37:29;;;;;;;1.08;0.60;;;17.60;78.40;;;;;;4965797;28;20039;-79
2023/11/13 10:39:57;;;;;;;0.75;0.55;;;17.60;78.40;;;;;;4967459;28;20129;-80
2023/11/13 10:42:23;;;;;;;0.43;0.40;;;17.60;78.10;;;;;;4965891;28;20125;-79
2023/11/13 10:44:56;;;;;;;0.60;0.60;;;17.60;78.30;;;;;;4966317;28;20066;-79
2023/11/13 10:47:30;;;;;;;0.73;0.50;;;17.60;78.40;;;;;;4965503;28;20055;-79
2023/11/13 10:49:56;;;;;;;;;;;17.60;78.50;;;;;;4963848;28;20043;-80
2023/11/13 10:52:29;;;;;;;0.57;0.47;;;17.60;79.10;;;;;;4967806;28;19990;-79
2023/11/13 10:54:56;;;;;;;0.40;0.40;;;17.60;78.80;;;;;;4948523;28;20476;-82
2023/11/13 10:57:22;;;;;;;0.93;0.60;;;17.60;79.20;;;;;;4951530;28;20047;-79
2023/11/13 10:59:52;;;;;;;1.30;0.50;;;17.60;79.00;;;;;;4981121;28;20599;-79
2023/11/13 11:02:30;;;;;;;0.85;0.60;;;17.60;78.70;;;;;;4962085;28;20412;-79
2023/11/13 11:04:59;;;;;;;0.40;0.40;;;17.60;78.90;;;;;;4945956;28;20049;-82
2023/11/13 11:07:26;;;;;;;0.50;0.50;;;17.60;79.00;;;;;;4952072;28;20053;-80
2023/11/13 11:09:56;;;;;;;0.82;0.55;;;17.60;78.30;;;;;;4962642;28;20049;-80
2023/11/13 11:12:22;;;;;;;0.35;0.35;;;17.60;77.50;;;;;;4963315;28;20046;-79
2023/11/13 11:14:57;;;;;;;1.45;0.80;;;17.60;77.00;;;;;;4964486;28;20398;-79
2023/11/13 11:17:25;;;;;;;0.50;0.50;;;17.60;76.80;;;;;;4964702;28;20053;-79
2023/11/13 11:19:51;;;;;;;0.85;0.63;;;17.70;76.70;;;;;;4949753;28;20137;-82
2023/11/13 11:22:18;;;;;;;0.57;0.40;;;17.70;76.70;;;;;;4964698;28;20053;-82
2023/11/13 11:25:11;;;;;;;1.50;0.70;;;17.70;76.90;;;;;;4965278;28;20050;-81
2023/11/13 11:27:40;;;;;;;0.50;0.45;;;17.70;77.70;;;;;;4967279;28;20476;-82
2023/11/13 11:30:18;;;;;;;1.83;0.60;;;17.70;76.80;;;;;;4960597;28;20109;-86
2023/11/13 11:32:56;;;;;;;1.40;0.70;;;17.70;77.50;;;;;;4962620;28;20050;-83
2023/11/13 11:35:23;;;;;;;5.47;0.93;;;17.80;77.60;;;;;;4964329;28;20058;-81
2023/11/13 11:38:26;;;;;;;1.83;0.95;;;17.80;78.80;;;;;;4965410;28;20508;-81
2023/11/13 11:40:52;;;;;;;2.88;0.88;;;17.80;78.90;;;;;;4949676;28;20062;-83
2023/11/13 11:43:22;;;;;;;1.25;0.80;;;17.80;78.40;;;;;;4959686;28;20055;-84
2023/11/13 11:45:52;;;;;;;1.90;0.82;;;17.80;78.60;;;;;;4962385;28;20050;-84
2023/11/13 11:48:18;;;;;;;0.82;0.60;;;17.80;77.90;;;;;;4964542;28;20062;-83
2023/11/13 11:50:45;;;;;;;1.58;1.00;;;17.80;79.10;;;;;;4962180;28;20547;-84
2023/11/13 11:53:16;;;;;;;1.67;0.60;;;17.80;79.40;;;;;;4962976;28;20126;-84
2023/11/13 11:55:43;;;;;;;1.30;0.73;;;17.80;78.80;;;;;;4964232;28;20046;-82
2023/11/13 11:58:11;;;;;;;1.48;0.80;;;17.80;78.60;;;;;;4964266;28;20046;-82
2023/11/13 12:00:37;;;;;;;1.85;1.08;;;17.90;79.10;;;;;;4961249;28;20109;-82
2023/11/13 12:03:03;;;;;;;1.55;0.80;;;17.90;78.30;;;;;;4964150;28;20034;-84
2023/11/13 12:05:29;;;;;;;2.00;1.00;;;17.90;79.20;;;;;;4968725;28;20050;-87
2023/11/13 12:07:55;;;;;;;3.83;1.00;;;18.00;78.70;;;;;;4969987;28;20233;-86
2023/11/13 12:10:21;;;;;;;1.42;1.00;;;18.00;78.90;;;;;;4966642;28;20042;-80
2023/11/13 12:12:50;;;;;;;1.02;0.70;;;18.00;78.90;;;;;;4933526;28;20041;-80
2023/11/13 12:15:16;;;;;;;4.00;0.77;;;18.00;78.70;;;;;;4948300;28;20126;-81
2023/11/13 12:17:42;;;;;;;0.95;0.68;;;18.00;78.90;;;;;;4967365;28;20065;-80
2023/11/13 12:20:11;;;;;;;1.08;0.65;;;17.90;78.50;;;;;;4966174;28;20050;-81
2023/11/13 12:22:37;;;;;;;2.45;0.80;;;17.90;78.80;;;;;;4968102;28;20086;-81
2023/11/13 12:25:06;;;;;;;1.27;1.00;;;17.90;78.50;;;;;;4967429;28;20053;-81
2023/11/13 12:27:32;;;;;;;1.80;0.93;;;17.90;78.20;;;;;;4949201;28;20039;-80
2023/11/13 12:30:04;;;;;;;0.70;0.50;;;17.90;78.30;;;;;;4967635;28;20121;-80
2023/11/13 12:32:30;;;;;;;3.35;1.13;;;17.90;78.40;;;;;;4963871;28;20424;-80
2023/11/13 12:34:57;;;;;;;1.92;0.90;;;17.90;78.30;;;;;;4950023;28;20527;-79
2023/11/13 12:37:24;;;;;;;0.68;0.50;;;17.90;78.20;;;;;;4968677;28;20074;-80
2023/11/13 12:39:50;;;;;;;1.80;0.75;;;18.00;78.00;;;;;;4952559;28;20543;-80
2023/11/13 12:42:16;;;;;;;2.05;0.73;;;18.00;77.40;;;;;;4964624;28;20065;-81
2023/11/13 12:44:42;;;;;;;1.73;1.02;;;18.10;77.50;;;;;;4951464;28;20397;-81
2023/11/13 12:47:08;;;;;;;1.80;0.50;;;18.10;77.60;;;;;;4967215;28;20043;-81